Date,TemperatureHighF,TemperatureAvgF,TemperatureLowF,DewpointHighF,DewpointAvgF,DewpointLowF,HumidityHigh,HumidityAvg,HumidityLow,PressureMaxIn,PressureMinIn,WindSpeedMaxMPH,WindSpeedAvgMPH,GustSpeedMaxMPH,PrecipitationSumIn
2013-10-1,51.9,43.3,31.0,36.2,30.9,21.6,80,62,34,30.17,29.93,18,1,18,0.00
2013-10-2,48.6,37.9,26.7,33.5,27.5,21.9,84,67,40,30.20,30.01,16,1,16,0.02
2013-10-3,49.8,39.3,31.2,32.7,29.6,26.9,87,70,44,30.42,30.10,4,0,4,0.01
2013-10-4,58.7,43.1,29.3,33.4,27.5,22.6,83,58,25,30.55,30.36,0,0,0,0.00
2013-10-5,74.9,49.7,30.4,33.9,25.8,16.3,82,47,11,30.41,30.12,0,0,0,0.00
2013-10-6,75.1,55.8,37.5,35.4,26.2,19.4,61,35,13,30.19,29.87,7,0,7,0.00
2013-10-7,54.7,48.6,37.9,38.3,28.6,17.5,73,47,27,30.06,29.84,17,1,17,0.00
2013-10-8,49.5,41.4,33.8,38.0,32.3,28.2,86,71,46,30.09,29.89,5,0,5,0.07
2013-10-9,43.5,38.7,34.0,33.7,32.0,30.3,87,77,64,30.06,29.93,16,1,16,0.04
2013-10-10,56.3,43.0,33.2,33.2,30.3,26.3,81,63,36,30.05,29.88,17,1,17,0.00
2013-10-11,52.9,41.6,28.5,35.0,30.6,24.8,87,67,42,30.15,30.02,5,0,5,0.00
2013-10-12,47.1,40.2,34.4,35.4,31.8,29.1,83,72,54,30.14,30.00,5,0,5,0.00
2013-10-13,49.1,42.9,36.2,36.3,34.4,30.6,86,73,50,30.33,30.12,1,0,0,0.00
2013-10-14,53.5,41.2,30.1,33.4,28.9,25.8,86,64,38,30.41,30.31,5,0,5,0.00
2013-10-15,62.0,43.0,25.4,30.3,25.7,20.1,81,54,22,30.45,30.17,0,0,0,0.00
2013-10-16,62.6,45.6,30.7,28.4,24.3,20.3,69,46,22,30.19,30.03,4,0,4,0.00
2013-10-17,59.9,44.8,31.5,34.6,29.0,25.7,80,57,29,30.27,30.13,4,0,1,0.00
2013-10-18,64.2,45.6,30.0,34.7,30.4,25.2,83,59,27,30.30,30.11,0,0,0,0.00
2013-10-19,74.2,51.0,29.1,32.1,26.5,20.7,81,46,14,30.20,30.00,0,0,0,0.00
2013-10-20,68.9,51.6,37.2,33.2,29.0,25.5,69,45,20,30.17,30.03,0,0,0,0.00
2013-10-21,70.4,51.9,37.0,35.7,31.6,28.5,73,49,22,30.19,30.01,1,0,0,0.00
2013-10-22,70.1,50.9,35.6,37.1,32.8,28.8,78,54,22,30.18,29.96,4,0,1,0.00
2013-10-23,67.6,49.6,34.7,36.6,33.4,29.7,83,57,27,30.11,29.95,6,0,4,0.00
2013-10-24,69.1,49.4,35.0,39.5,35.0,31.2,87,62,27,30.14,29.94,1,0,0,0.00
2013-10-25,71.3,50.7,32.4,36.2,31.5,23.8,84,53,17,30.22,30.06,4,0,4,0.00
2013-10-26,70.6,49.0,35.9,35.9,31.1,25.6,74,54,19,30.29,30.04,4,0,4,0.00
2013-10-27,51.6,40.3,36.0,39.2,33.9,27.8,90,78,41,30.06,29.72,26,2,26,0.14
2013-10-28,40.1,34.2,30.6,37.4,25.8,19.1,90,72,56,29.99,29.72,22,7,22,0.02
2013-10-29,46.0,34.4,25.0,22.1,18.8,15.9,70,54,35,30.10,29.97,0,0,0,0.00
2013-10-30,55.9,39.4,22.5,31.2,24.4,18.5,86,59,28,30.21,30.06,0,0,0,0.00
2013-10-31,61.5,48.2,35.9,43.3,37.4,28.4,80,67,48,30.21,30.07,10,0,10,0.00